sensor_id;sensor_type;location;lat;lon;timestamp;P1;durP1;ratioP1;P2;durP2;ratioP2
21554;SDS011;10938;44.794;-0.676;2022-11-15T00:00:51;5.53;;;2.22;;
21554;SDS011;10938;44.794;-0.676;2022-11-15T00:03:19;6.63;;;2.40;;
21554;SDS011;10938;44.794;-0.676;2022-11-15T00:05:46;5.35;;;2.17;;
21554;SDS011;10938;44.794;-0.676;2022-11-15T00:08:11;6.85;;;2.50;;
21554;SDS011;10938;44.794;-0.676;2022-11-15T00:10:37;8.38;;;2.60;;
21554;SDS011;10938;44.794;-0.676;2022-11-15T00:13:06;5.88;;;2.53;;
21554;SDS011;10938;44.794;-0.676;2022-11-15T00:15:34;7.38;;;3.08;;
21554;SDS011;10938;44.794;-0.676;2022-11-15T00:18:01;8.50;;;2.85;;
21554;SDS011;10938;44.794;-0.676;2022-11-15T00:20:26;7.47;;;2.10;;
21554;SDS011;10938;44.794;-0.676;2022-11-15T00:22:52;4.50;;;1.80;;
21554;SDS011;10938;44.794;-0.676;2022-11-15T00:25:17;7.40;;;2.10;;
21554;SDS011;10938;44.794;-0.676;2022-11-15T00:27:43;7.32;;;1.85;;
21554;SDS011;10938;44.794;-0.676;2022-11-15T00:30:09;6.22;;;2.05;;
21554;SDS011;10938;44.794;-0.676;2022-11-15T00:32:35;7.38;;;2.25;;
21554;SDS011;10938;44.794;-0.676;2022-11-15T00:35:00;7.05;;;2.20;;
21554;SDS011;10938;44.794;-0.676;2022-11-15T00:37:26;5.55;;;2.28;;
21554;SDS011;10938;44.794;-0.676;2022-11-15T00:39:51;3.70;;;2.08;;
21554;SDS011;10938;44.794;-0.676;2022-11-15T00:42:17;5.97;;;2.20;;
21554;SDS011;10938;44.794;-0.676;2022-11-15T00:44:42;9.85;;;2.33;;
21554;SDS011;10938;44.794;-0.676;2022-11-15T00:47:08;6.45;;;2.00;;
21554;SDS011;10938;44.794;-0.676;2022-11-15T00:49:33;7.90;;;2.40;;
21554;SDS011;10938;44.794;-0.676;2022-11-15T00:51:59;6.88;;;2.50;;
21554;SDS011;10938;44.794;-0.676;2022-11-15T00:54:25;8.00;;;2.30;;
21554;SDS011;10938;44.794;-0.676;2022-11-15T00:56:50;8.82;;;2.50;;
21554;SDS011;10938;44.794;-0.676;2022-11-15T00:59:16;6.72;;;2.15;;
21554;SDS011;10938;44.794;-0.676;2022-11-15T01:01:41;6.35;;;1.92;;
21554;SDS011;10938;44.794;-0.676;2022-11-15T01:04:07;5.85;;;2.22;;
21554;SDS011;10938;44.794;-0.676;2022-11-15T01:06:32;7.07;;;1.80;;
21554;SDS011;10938;44.794;-0.676;2022-11-15T01:08:57;12.15;;;2.40;;
21554;SDS011;10938;44.794;-0.676;2022-11-15T01:11:23;4.57;;;1.80;;
21554;SDS011;10938;44.794;-0.676;2022-11-15T01:13:48;14.82;;;2.70;;
21554;SDS011;10938;44.794;-0.676;2022-11-15T01:16:15;5.43;;;2.25;;
21554;SDS011;10938;44.794;-0.676;2022-11-15T01:18:43;8.57;;;2.45;;
21554;SDS011;10938;44.794;-0.676;2022-11-15T01:21:10;5.53;;;2.30;;
21554;SDS011;10938;44.794;-0.676;2022-11-15T01:23:38;8.38;;;2.20;;
21554;SDS011;10938;44.794;-0.676;2022-11-15T01:26:05;6.55;;;2.38;;
21554;SDS011;10938;44.794;-0.676;2022-11-15T01:28:32;7.43;;;2.47;;
21554;SDS011;10938;44.794;-0.676;2022-11-15T01:31:00;5.10;;;2.00;;
21554;SDS011;10938;44.794;-0.676;2022-11-15T01:33:26;5.05;;;1.88;;
21554;SDS011;10938;44.794;-0.676;2022-11-15T01:35:53;9.30;;;2.40;;
21554;SDS011;10938;44.794;-0.676;2022-11-15T01:38:19;6.40;;;2.10;;
21554;SDS011;10938;44.794;-0.676;2022-11-15T01:40:44;8.98;;;2.45;;
21554;SDS011;10938;44.794;-0.676;2022-11-15T01:43:23;8.43;;;2.55;;
21554;SDS011;10938;44.794;-0.676;2022-11-15T01:45:52;5.32;;;2.00;;
21554;SDS011;10938;44.794;-0.676;2022-11-15T01:48:25;6.45;;;1.90;;
21554;SDS011;10938;44.794;-0.676;2022-11-15T01:50:56;5.88;;;2.42;;
21554;SDS011;10938;44.794;-0.676;2022-11-15T01:53:23;5.90;;;2.00;;
21554;SDS011;10938;44.794;-0.676;2022-11-15T01:55:50;3.85;;;2.03;;
21554;SDS011;10938;44.794;-0.676;2022-11-15T01:58:16;5.47;;;1.85;;
21554;SDS011;10938;44.794;-0.676;2022-11-15T02:00:42;5.38;;;1.50;;
21554;SDS011;10938;44.794;-0.676;2022-11-15T02:03:07;9.25;;;2.45;;
21554;SDS011;10938;44.794;-0.676;2022-11-15T02:05:33;7.70;;;1.92;;
21554;SDS011;10938;44.794;-0.676;2022-11-15T02:08:01;5.78;;;1.50;;
21554;SDS011;10938;44.794;-0.676;2022-11-15T02:10:27;4.50;;;2.05;;
21554;SDS011;10938;44.794;-0.676;2022-11-15T02:12:53;5.32;;;2.22;;
21554;SDS011;10938;44.794;-0.676;2022-11-15T02:15:20;4.28;;;1.70;;
21554;SDS011;10938;44.794;-0.676;2022-11-15T02:18:02;5.03;;;1.67;;
21554;SDS011;10938;44.794;-0.676;2022-11-15T02:28:40;4.00;;;1.35;;
21554;SDS011;10938;44.794;-0.676;2022-11-15T02:42:14;5.72;;;1.63;;
21554;SDS011;10938;44.794;-0.676;2022-11-15T02:45:08;5.03;;;1.67;;
21554;SDS011;10938;44.794;-0.676;2022-11-15T02:47:41;4.07;;;1.50;;
21554;SDS011;10938;44.794;-0.676;2022-11-15T02:50:13;3.17;;;1.38;;
21554;SDS011;10938;44.794;-0.676;2022-11-15T02:52:44;3.25;;;1.50;;
21554;SDS011;10938;44.794;-0.676;2022-11-15T03:00:34;4.00;;;1.50;;
21554;SDS011;10938;44.794;-0.676;2022-11-15T03:08:32;5.85;;;1.50;;
21554;SDS011;10938;44.794;-0.676;2022-11-15T03:16:17;5.32;;;1.65;;
21554;SDS011;10938;44.794;-0.676;2022-11-15T03:18:50;5.22;;;1.50;;
21554;SDS011;10938;44.794;-0.676;2022-11-15T03:21:20;5.90;;;1.60;;
21554;SDS011;10938;44.794;-0.676;2022-11-15T03:23:47;6.63;;;1.38;;
21554;SDS011;10938;44.794;-0.676;2022-11-15T03:26:15;3.70;;;1.50;;
21554;SDS011;10938;44.794;-0.676;2022-11-15T03:28:53;2.83;;;1.40;;
21554;SDS011;10938;44.794;-0.676;2022-11-15T03:31:24;6.05;;;1.63;;
21554;SDS011;10938;44.794;-0.676;2022-11-15T03:34:15;4.47;;;1.70;;
21554;SDS011;10938;44.794;-0.676;2022-11-15T03:37:05;4.30;;;1.63;;
21554;SDS011;10938;44.794;-0.676;2022-11-15T03:39:32;3.05;;;1.30;;
21554;SDS011;10938;44.794;-0.676;2022-11-15T03:47:32;7.50;;;1.80;;
21554;SDS011;10938;44.794;-0.676;2022-11-15T03:50:22;4.43;;;1.55;;
21554;SDS011;10938;44.794;-0.676;2022-11-15T03:52:51;6.07;;;1.95;;
21554;SDS011;10938;44.794;-0.676;2022-11-15T03:55:20;3.97;;;1.40;;
21554;SDS011;10938;44.794;-0.676;2022-11-15T03:57:50;3.38;;;1.58;;
21554;SDS011;10938;44.794;-0.676;2022-11-15T04:00:20;2.65;;;1.40;;
21554;SDS011;10938;44.794;-0.676;2022-11-15T04:02:45;3.10;;;1.52;;
21554;SDS011;10938;44.794;-0.676;2022-11-15T04:05:11;4.57;;;1.33;;
21554;SDS011;10938;44.794;-0.676;2022-11-15T04:07:36;3.17;;;1.38;;
21554;SDS011;10938;44.794;-0.676;2022-11-15T04:10:02;3.38;;;1.55;;
21554;SDS011;10938;44.794;-0.676;2022-11-15T04:12:39;1.73;;;1.38;;
21554;SDS011;10938;44.794;-0.676;2022-11-15T04:17:42;1.92;;;1.25;;
21554;SDS011;10938;44.794;-0.676;2022-11-15T04:20:11;2.55;;;1.75;;
21554;SDS011;10938;44.794;-0.676;2022-11-15T04:23:00;10.15;;;1.90;;
21554;SDS011;10938;44.794;-0.676;2022-11-15T04:28:14;6.70;;;1.85;;
21554;SDS011;10938;44.794;-0.676;2022-11-15T04:30:39;2.85;;;1.27;;
21554;SDS011;10938;44.794;-0.676;2022-11-15T04:33:05;4.55;;;1.40;;
21554;SDS011;10938;44.794;-0.676;2022-11-15T04:35:30;3.88;;;1.75;;
21554;SDS011;10938;44.794;-0.676;2022-11-15T04:37:56;2.78;;;1.80;;
21554;SDS011;10938;44.794;-0.676;2022-11-15T04:40:22;3.88;;;1.80;;
21554;SDS011;10938;44.794;-0.676;2022-11-15T04:42:48;3.95;;;1.63;;
21554;SDS011;10938;44.794;-0.676;2022-11-15T04:45:14;3.10;;;1.70;;
21554;SDS011;10938;44.794;-0.676;2022-11-15T04:47:39;1.63;;;1.40;;
21554;SDS011;10938;44.794;-0.676;2022-11-15T04:50:04;3.60;;;1.33;;
21554;SDS011;10938;44.794;-0.676;2022-11-15T04:52:31;5.20;;;1.85;;
21554;SDS011;10938;44.794;-0.676;2022-11-15T04:54:56;4.15;;;1.70;;
21554;SDS011;10938;44.794;-0.676;2022-11-15T04:57:22;5.53;;;2.00;;
21554;SDS011;10938;44.794;-0.676;2022-11-15T04:59:47;1.92;;;1.70;;
21554;SDS011;10938;44.794;-0.676;2022-11-15T05:02:15;1.92;;;1.60;;
21554;SDS011;10938;44.794;-0.676;2022-11-15T05:04:44;3.95;;;1.90;;
21554;SDS011;10938;44.794;-0.676;2022-11-15T05:07:09;4.03;;;2.00;;
21554;SDS011;10938;44.794;-0.676;2022-11-15T05:09:35;4.05;;;2.08;;
21554;SDS011;10938;44.794;-0.676;2022-11-15T05:12:01;3.72;;;2.15;;
21554;SDS011;10938;44.794;-0.676;2022-11-15T05:14:26;4.68;;;2.20;;
21554;SDS011;10938;44.794;-0.676;2022-11-15T05:16:51;4.00;;;2.33;;
21554;SDS011;10938;44.794;-0.676;2022-11-15T05:19:17;4.05;;;1.92;;
21554;SDS011;10938;44.794;-0.676;2022-11-15T05:21:42;5.63;;;2.15;;
21554;SDS011;10938;44.794;-0.676;2022-11-15T05:24:09;5.78;;;2.50;;
21554;SDS011;10938;44.794;-0.676;2022-11-15T05:26:36;5.95;;;2.45;;
21554;SDS011;10938;44.794;-0.676;2022-11-15T05:29:02;3.78;;;2.10;;
21554;SDS011;10938;44.794;-0.676;2022-11-15T05:31:30;4.20;;;2.22;;
21554;SDS011;10938;44.794;-0.676;2022-11-15T05:33:56;6.35;;;2.35;;
21554;SDS011;10938;44.794;-0.676;2022-11-15T05:36:43;5.38;;;2.10;;
21554;SDS011;10938;44.794;-0.676;2022-11-15T05:39:10;5.72;;;2.60;;
21554;SDS011;10938;44.794;-0.676;2022-11-15T05:41:40;3.55;;;2.30;;
21554;SDS011;10938;44.794;-0.676;2022-11-15T05:44:14;8.65;;;2.38;;
21554;SDS011;10938;44.794;-0.676;2022-11-15T05:46:43;3.65;;;2.20;;
21554;SDS011;10938;44.794;-0.676;2022-11-15T05:49:10;3.50;;;2.40;;
21554;SDS011;10938;44.794;-0.676;2022-11-15T05:51:39;7.63;;;2.83;;
21554;SDS011;10938;44.794;-0.676;2022-11-15T05:54:06;3.55;;;2.30;;
21554;SDS011;10938;44.794;-0.676;2022-11-15T05:56:32;3.00;;;2.00;;
21554;SDS011;10938;44.794;-0.676;2022-11-15T05:58:58;5.22;;;2.58;;
21554;SDS011;10938;44.794;-0.676;2022-11-15T06:01:26;3.90;;;2.20;;
21554;SDS011;10938;44.794;-0.676;2022-11-15T06:03:52;3.95;;;2.50;;
21554;SDS011;10938;44.794;-0.676;2022-11-15T06:06:18;5.50;;;2.15;;
21554;SDS011;10938;44.794;-0.676;2022-11-15T06:08:43;4.70;;;2.20;;
21554;SDS011;10938;44.794;-0.676;2022-11-15T06:11:09;5.55;;;2.45;;
21554;SDS011;10938;44.794;-0.676;2022-11-15T06:13:34;7.20;;;2.47;;
21554;SDS011;10938;44.794;-0.676;2022-11-15T06:16:00;6.03;;;2.55;;
21554;SDS011;10938;44.794;-0.676;2022-11-15T06:18:25;4.45;;;2.70;;
21554;SDS011;10938;44.794;-0.676;2022-11-15T06:20:51;5.25;;;2.38;;
21554;SDS011;10938;44.794;-0.676;2022-11-15T06:23:16;4.38;;;2.20;;
21554;SDS011;10938;44.794;-0.676;2022-11-15T06:25:42;3.30;;;2.28;;
21554;SDS011;10938;44.794;-0.676;2022-11-15T06:28:08;5.53;;;2.30;;
21554;SDS011;10938;44.794;-0.676;2022-11-15T06:30:33;4.22;;;2.45;;
21554;SDS011;10938;44.794;-0.676;2022-11-15T06:32:59;3.90;;;2.25;;
21554;SDS011;10938;44.794;-0.676;2022-11-15T06:35:32;6.18;;;3.00;;
21554;SDS011;10938;44.794;-0.676;2022-11-15T06:38:06;3.78;;;2.50;;
21554;SDS011;10938;44.794;-0.676;2022-11-15T06:40:34;4.00;;;2.65;;
21554;SDS011;10938;44.794;-0.676;2022-11-15T06:43:00;4.00;;;2.30;;
21554;SDS011;10938;44.794;-0.676;2022-11-15T06:45:27;5.00;;;2.47;;
21554;SDS011;10938;44.794;-0.676;2022-11-15T06:47:52;4.07;;;2.47;;
21554;SDS011;10938;44.794;-0.676;2022-11-15T06:50:18;2.78;;;2.38;;
21554;SDS011;10938;44.794;-0.676;2022-11-15T06:52:44;5.53;;;2.35;;
21554;SDS011;10938;44.794;-0.676;2022-11-15T06:55:09;5.22;;;2.80;;
21554;SDS011;10938;44.794;-0.676;2022-11-15T06:57:35;5.68;;;2.38;;
21554;SDS011;10938;44.794;-0.676;2022-11-15T07:00:02;3.80;;;2.53;;
21554;SDS011;10938;44.794;-0.676;2022-11-15T07:02:29;4.78;;;2.60;;
21554;SDS011;10938;44.794;-0.676;2022-11-15T07:04:54;6.15;;;2.78;;
21554;SDS011;10938;44.794;-0.676;2022-11-15T07:07:20;5.90;;;2.92;;
21554;SDS011;10938;44.794;-0.676;2022-11-15T07:09:45;8.20;;;2.70;;
21554;SDS011;10938;44.794;-0.676;2022-11-15T07:12:11;4.50;;;2.60;;
21554;SDS011;10938;44.794;-0.676;2022-11-15T07:14:36;3.75;;;2.58;;
21554;SDS011;10938;44.794;-0.676;2022-11-15T07:17:04;7.70;;;3.00;;
21554;SDS011;10938;44.794;-0.676;2022-11-15T07:19:30;4.07;;;2.97;;
21554;SDS011;10938;44.794;-0.676;2022-11-15T07:21:56;3.72;;;2.72;;
21554;SDS011;10938;44.794;-0.676;2022-11-15T07:24:22;5.32;;;3.30;;
21554;SDS011;10938;44.794;-0.676;2022-11-15T07:26:49;8.32;;;3.67;;
21554;SDS011;10938;44.794;-0.676;2022-11-15T07:29:14;5.57;;;3.65;;
21554;SDS011;10938;44.794;-0.676;2022-11-15T07:31:39;6.68;;;3.55;;
21554;SDS011;10938;44.794;-0.676;2022-11-15T07:34:05;6.10;;;3.20;;
21554;SDS011;10938;44.794;-0.676;2022-11-15T07:36:31;5.63;;;3.40;;
21554;SDS011;10938;44.794;-0.676;2022-11-15T07:38:56;5.20;;;3.05;;
21554;SDS011;10938;44.794;-0.676;2022-11-15T07:41:22;5.45;;;3.25;;
21554;SDS011;10938;44.794;-0.676;2022-11-15T07:43:52;6.28;;;3.00;;
21554;SDS011;10938;44.794;-0.676;2022-11-15T07:46:18;4.80;;;2.92;;
21554;SDS011;10938;44.794;-0.676;2022-11-15T07:48:43;4.78;;;2.70;;
21554;SDS011;10938;44.794;-0.676;2022-11-15T07:51:12;3.17;;;2.67;;
21554;SDS011;10938;44.794;-0.676;2022-11-15T07:53:42;5.95;;;2.80;;
21554;SDS011;10938;44.794;-0.676;2022-11-15T07:56:08;4.30;;;2.65;;
21554;SDS011;10938;44.794;-0.676;2022-11-15T07:58:37;3.70;;;2.70;;
21554;SDS011;10938;44.794;-0.676;2022-11-15T08:01:26;3.70;;;2.63;;
21554;SDS011;10938;44.794;-0.676;2022-11-15T08:03:51;8.07;;;2.63;;
21554;SDS011;10938;44.794;-0.676;2022-11-15T08:06:17;5.88;;;2.20;;
21554;SDS011;10938;44.794;-0.676;2022-11-15T08:08:42;5.45;;;2.58;;
21554;SDS011;10938;44.794;-0.676;2022-11-15T08:11:08;3.85;;;2.85;;
21554;SDS011;10938;44.794;-0.676;2022-11-15T08:13:34;4.35;;;2.47;;
21554;SDS011;10938;44.794;-0.676;2022-11-15T08:16:01;6.32;;;2.55;;
21554;SDS011;10938;44.794;-0.676;2022-11-15T08:18:27;4.70;;;2.53;;
21554;SDS011;10938;44.794;-0.676;2022-11-15T08:20:52;5.93;;;2.53;;
21554;SDS011;10938;44.794;-0.676;2022-11-15T08:23:17;6.35;;;2.78;;
21554;SDS011;10938;44.794;-0.676;2022-11-15T08:25:43;3.92;;;2.33;;
21554;SDS011;10938;44.794;-0.676;2022-11-15T08:28:09;2.78;;;2.10;;
21554;SDS011;10938;44.794;-0.676;2022-11-15T08:30:36;4.43;;;2.60;;
21554;SDS011;10938;44.794;-0.676;2022-11-15T08:33:04;4.60;;;2.50;;
21554;SDS011;10938;44.794;-0.676;2022-11-15T08:35:29;2.85;;;2.50;;
21554;SDS011;10938;44.794;-0.676;2022-11-15T08:37:55;4.00;;;2.65;;
21554;SDS011;10938;44.794;-0.676;2022-11-15T08:40:21;4.50;;;2.60;;
21554;SDS011;10938;44.794;-0.676;2022-11-15T08:42:47;3.58;;;2.50;;
21554;SDS011;10938;44.794;-0.676;2022-11-15T08:45:13;4.32;;;2.50;;
21554;SDS011;10938;44.794;-0.676;2022-11-15T08:47:39;4.32;;;2.53;;
21554;SDS011;10938;44.794;-0.676;2022-11-15T08:50:05;5.43;;;2.78;;
21554;SDS011;10938;44.794;-0.676;2022-11-15T08:52:30;6.00;;;3.13;;
21554;SDS011;10938;44.794;-0.676;2022-11-15T08:54:56;3.53;;;2.03;;
21554;SDS011;10938;44.794;-0.676;2022-11-15T08:57:22;3.10;;;2.00;;
21554;SDS011;10938;44.794;-0.676;2022-11-15T08:59:47;4.05;;;2.30;;
21554;SDS011;10938;44.794;-0.676;2022-11-15T09:02:13;3.85;;;2.10;;
21554;SDS011;10938;44.794;-0.676;2022-11-15T09:04:40;5.60;;;2.17;;
21554;SDS011;10938;44.794;-0.676;2022-11-15T09:07:08;5.05;;;2.20;;
21554;SDS011;10938;44.794;-0.676;2022-11-15T09:09:36;3.78;;;2.10;;
21554;SDS011;10938;44.794;-0.676;2022-11-15T09:12:02;5.93;;;2.00;;
21554;SDS011;10938;44.794;-0.676;2022-11-15T09:14:29;3.58;;;2.20;;
21554;SDS011;10938;44.794;-0.676;2022-11-15T09:16:54;4.45;;;2.35;;
21554;SDS011;10938;44.794;-0.676;2022-11-15T09:19:20;3.80;;;2.60;;
21554;SDS011;10938;44.794;-0.676;2022-11-15T09:21:46;4.05;;;2.40;;
21554;SDS011;10938;44.794;-0.676;2022-11-15T09:24:12;3.78;;;2.40;;
21554;SDS011;10938;44.794;-0.676;2022-11-15T09:26:37;4.45;;;2.17;;
21554;SDS011;10938;44.794;-0.676;2022-11-15T09:29:03;4.60;;;2.55;;
21554;SDS011;10938;44.794;-0.676;2022-11-15T09:31:29;3.28;;;2.20;;
21554;SDS011;10938;44.794;-0.676;2022-11-15T09:33:54;4.90;;;2.17;;
21554;SDS011;10938;44.794;-0.676;2022-11-15T09:36:20;6.15;;;2.28;;
21554;SDS011;10938;44.794;-0.676;2022-11-15T09:38:45;7.13;;;3.08;;
21554;SDS011;10938;44.794;-0.676;2022-11-15T09:49:16;6.03;;;2.35;;
21554;SDS011;10938;44.794;-0.676;2022-11-15T09:51:47;4.65;;;2.70;;
21554;SDS011;10938;44.794;-0.676;2022-11-15T09:54:31;6.53;;;3.00;;
21554;SDS011;10938;44.794;-0.676;2022-11-15T09:57:18;4.95;;;3.25;;
21554;SDS011;10938;44.794;-0.676;2022-11-15T10:05:04;5.07;;;3.13;;
21554;SDS011;10938;44.794;-0.676;2022-11-15T10:07:54;5.88;;;3.13;;
21554;SDS011;10938;44.794;-0.676;2022-11-15T10:13:01;4.82;;;2.95;;
21554;SDS011;10938;44.794;-0.676;2022-11-15T10:15:28;5.35;;;3.53;;
21554;SDS011;10938;44.794;-0.676;2022-11-15T10:20:58;5.38;;;3.70;;
21554;SDS011;10938;44.794;-0.676;2022-11-15T10:23:26;6.45;;;4.00;;
21554;SDS011;10938;44.794;-0.676;2022-11-15T10:25:55;9.07;;;3.17;;
21554;SDS011;10938;44.794;-0.676;2022-11-15T10:30:57;5.72;;;2.70;;
21554;SDS011;10938;44.794;-0.676;2022-11-15T10:33:33;7.53;;;2.50;;
21554;SDS011;10938;44.794;-0.676;2022-11-15T10:41:13;4.25;;;2.22;;
21554;SDS011;10938;44.794;-0.676;2022-11-15T10:43:41;3.88;;;2.40;;
21554;SDS011;10938;44.794;-0.676;2022-11-15T10:46:22;5.40;;;2.10;;
21554;SDS011;10938;44.794;-0.676;2022-11-15T10:48:50;4.90;;;3.15;;
21554;SDS011;10938;44.794;-0.676;2022-11-15T10:51:25;4.80;;;2.58;;
21554;SDS011;10938;44.794;-0.676;2022-11-15T10:53:54;4.35;;;2.75;;
21554;SDS011;10938;44.794;-0.676;2022-11-15T10:56:23;4.72;;;3.00;;
21554;SDS011;10938;44.794;-0.676;2022-11-15T10:58:55;6.25;;;4.65;;
21554;SDS011;10938;44.794;-0.676;2022-11-15T11:01:24;6.38;;;4.15;;
21554;SDS011;10938;44.794;-0.676;2022-11-15T11:03:59;6.47;;;3.78;;
21554;SDS011;10938;44.794;-0.676;2022-11-15T11:06:29;4.60;;;3.08;;
21554;SDS011;10938;44.794;-0.676;2022-11-15T11:08:59;3.78;;;2.08;;
21554;SDS011;10938;44.794;-0.676;2022-11-15T11:11:45;3.33;;;2.25;;
21554;SDS011;10938;44.794;-0.676;2022-11-15T11:14:17;3.22;;;2.67;;
21554;SDS011;10938;44.794;-0.676;2022-11-15T11:16:49;4.70;;;3.15;;
21554;SDS011;10938;44.794;-0.676;2022-11-15T11:27:50;4.07;;;2.60;;
21554;SDS011;10938;44.794;-0.676;2022-11-15T11:30:27;5.07;;;2.55;;
21554;SDS011;10938;44.794;-0.676;2022-11-15T11:44:18;4.40;;;2.58;;
21554;SDS011;10938;44.794;-0.676;2022-11-15T11:49:25;3.25;;;2.42;;
21554;SDS011;10938;44.794;-0.676;2022-11-15T11:52:00;4.65;;;2.85;;
21554;SDS011;10938;44.794;-0.676;2022-11-15T11:57:25;6.30;;;4.57;;
21554;SDS011;10938;44.794;-0.676;2022-11-15T12:08:45;4.18;;;3.05;;
21554;SDS011;10938;44.794;-0.676;2022-11-15T12:14:22;3.65;;;2.60;;
21554;SDS011;10938;44.794;-0.676;2022-11-15T12:16:52;4.90;;;2.55;;
21554;SDS011;10938;44.794;-0.676;2022-11-15T12:19:18;3.75;;;2.25;;
21554;SDS011;10938;44.794;-0.676;2022-11-15T12:21:44;4.47;;;2.22;;
21554;SDS011;10938;44.794;-0.676;2022-11-15T12:24:32;5.00;;;3.15;;
21554;SDS011;10938;44.794;-0.676;2022-11-15T12:32:04;13.88;;;8.93;;
21554;SDS011;10938;44.794;-0.676;2022-11-15T12:34:43;12.68;;;8.45;;
21554;SDS011;10938;44.794;-0.676;2022-11-15T12:45:27;11.18;;;7.47;;
21554;SDS011;10938;44.794;-0.676;2022-11-15T12:47:57;10.90;;;6.15;;
21554;SDS011;10938;44.794;-0.676;2022-11-15T12:50:57;5.53;;;3.00;;
21554;SDS011;10938;44.794;-0.676;2022-11-15T13:06:45;6.13;;;1.90;;
21554;SDS011;10938;44.794;-0.676;2022-11-15T13:12:11;5.72;;;2.67;;
21554;SDS011;10938;44.794;-0.676;2022-11-15T13:14:59;5.72;;;1.65;;
21554;SDS011;10938;44.794;-0.676;2022-11-15T13:17:46;7.03;;;2.50;;
21554;SDS011;10938;44.794;-0.676;2022-11-15T13:22:43;10.20;;;6.05;;
21554;SDS011;10938;44.794;-0.676;2022-11-15T13:25:33;7.95;;;3.65;;
21554;SDS011;10938;44.794;-0.676;2022-11-15T13:28:32;7.35;;;3.50;;
21554;SDS011;10938;44.794;-0.676;2022-11-15T13:31:05;10.57;;;3.30;;
21554;SDS011;10938;44.794;-0.676;2022-11-15T13:33:53;12.23;;;5.90;;
21554;SDS011;10938;44.794;-0.676;2022-11-15T13:36:23;13.23;;;4.15;;
21554;SDS011;10938;44.794;-0.676;2022-11-15T13:38:59;9.93;;;3.22;;
21554;SDS011;10938;44.794;-0.676;2022-11-15T13:41:28;7.10;;;3.72;;
21554;SDS011;10938;44.794;-0.676;2022-11-15T13:43:55;15.90;;;8.00;;
21554;SDS011;10938;44.794;-0.676;2022-11-15T13:46:23;16.95;;;8.40;;
21554;SDS011;10938;44.794;-0.676;2022-11-15T13:48:59;15.40;;;6.72;;
21554;SDS011;10938;44.794;-0.676;2022-11-15T13:51:35;12.63;;;5.47;;
21554;SDS011;10938;44.794;-0.676;2022-11-15T13:56:38;10.60;;;2.42;;
21554;SDS011;10938;44.794;-0.676;2022-11-15T13:59:10;6.85;;;1.42;;
21554;SDS011;10938;44.794;-0.676;2022-11-15T14:01:42;10.32;;;2.03;;
21554;SDS011;10938;44.794;-0.676;2022-11-15T14:04:12;5.25;;;1.40;;
21554;SDS011;10938;44.794;-0.676;2022-11-15T14:06:47;2.53;;;0.70;;
21554;SDS011;10938;44.794;-0.676;2022-11-15T14:12:01;2.40;;;0.93;;
21554;SDS011;10938;44.794;-0.676;2022-11-15T14:17:20;6.20;;;1.17;;
21554;SDS011;10938;44.794;-0.676;2022-11-15T14:19:56;3.47;;;1.60;;
21554;SDS011;10938;44.794;-0.676;2022-11-15T14:22:23;3.13;;;1.90;;
21554;SDS011;10938;44.794;-0.676;2022-11-15T14:27:42;5.65;;;2.13;;
21554;SDS011;10938;44.794;-0.676;2022-11-15T14:30:17;3.88;;;1.70;;
21554;SDS011;10938;44.794;-0.676;2022-11-15T14:32:44;4.18;;;1.52;;
21554;SDS011;10938;44.794;-0.676;2022-11-15T14:35:15;4.15;;;1.10;;
21554;SDS011;10938;44.794;-0.676;2022-11-15T14:37:48;3.05;;;1.10;;
21554;SDS011;10938;44.794;-0.676;2022-11-15T14:40:15;3.05;;;1.50;;
21554;SDS011;10938;44.794;-0.676;2022-11-15T14:42:44;4.95;;;1.48;;
21554;SDS011;10938;44.794;-0.676;2022-11-15T14:45:21;3.83;;;1.08;;
21554;SDS011;10938;44.794;-0.676;2022-11-15T14:47:47;3.38;;;1.20;;
21554;SDS011;10938;44.794;-0.676;2022-11-15T14:50:14;7.30;;;1.63;;
21554;SDS011;10938;44.794;-0.676;2022-11-15T14:52:41;4.57;;;1.55;;
21554;SDS011;10938;44.794;-0.676;2022-11-15T14:55:15;5.18;;;2.08;;
21554;SDS011;10938;44.794;-0.676;2022-11-15T14:57:54;5.28;;;1.60;;
21554;SDS011;10938;44.794;-0.676;2022-11-15T15:00:44;6.32;;;1.10;;
21554;SDS011;10938;44.794;-0.676;2022-11-15T15:03:09;6.55;;;1.52;;
21554;SDS011;10938;44.794;-0.676;2022-11-15T15:05:36;7.65;;;1.63;;
21554;SDS011;10938;44.794;-0.676;2022-11-15T15:08:04;12.57;;;2.00;;
21554;SDS011;10938;44.794;-0.676;2022-11-15T15:10:34;9.57;;;1.60;;
21554;SDS011;10938;44.794;-0.676;2022-11-15T15:13:03;6.78;;;2.10;;
21554;SDS011;10938;44.794;-0.676;2022-11-15T15:15:32;5.80;;;2.03;;
21554;SDS011;10938;44.794;-0.676;2022-11-15T15:18:00;7.38;;;2.22;;
21554;SDS011;10938;44.794;-0.676;2022-11-15T15:20:25;10.30;;;2.28;;
21554;SDS011;10938;44.794;-0.676;2022-11-15T15:22:52;6.82;;;2.20;;
21554;SDS011;10938;44.794;-0.676;2022-11-15T15:25:28;11.32;;;2.00;;
21554;SDS011;10938;44.794;-0.676;2022-11-15T15:27:55;8.50;;;2.05;;
21554;SDS011;10938;44.794;-0.676;2022-11-15T15:30:25;11.98;;;2.63;;
21554;SDS011;10938;44.794;-0.676;2022-11-15T15:32:51;13.25;;;3.53;;
21554;SDS011;10938;44.794;-0.676;2022-11-15T15:35:17;12.95;;;3.42;;
21554;SDS011;10938;44.794;-0.676;2022-11-15T15:37:44;13.07;;;3.78;;
21554;SDS011;10938;44.794;-0.676;2022-11-15T15:40:21;10.88;;;2.55;;
21554;SDS011;10938;44.794;-0.676;2022-11-15T15:42:48;14.52;;;3.25;;
21554;SDS011;10938;44.794;-0.676;2022-11-15T15:45:14;13.48;;;3.30;;
21554;SDS011;10938;44.794;-0.676;2022-11-15T15:47:41;15.27;;;4.85;;
21554;SDS011;10938;44.794;-0.676;2022-11-15T15:50:19;16.13;;;4.30;;
21554;SDS011;10938;44.794;-0.676;2022-11-15T15:52:45;10.73;;;3.13;;
21554;SDS011;10938;44.794;-0.676;2022-11-15T15:55:11;12.40;;;3.53;;
21554;SDS011;10938;44.794;-0.676;2022-11-15T15:57:36;16.35;;;3.85;;
21554;SDS011;10938;44.794;-0.676;2022-11-15T16:00:02;13.23;;;4.20;;
21554;SDS011;10938;44.794;-0.676;2022-11-15T16:02:29;15.60;;;3.83;;
21554;SDS011;10938;44.794;-0.676;2022-11-15T16:04:55;19.90;;;5.22;;
21554;SDS011;10938;44.794;-0.676;2022-11-15T16:07:21;16.20;;;5.40;;
21554;SDS011;10938;44.794;-0.676;2022-11-15T16:09:49;13.70;;;5.10;;
21554;SDS011;10938;44.794;-0.676;2022-11-15T16:12:32;21.75;;;6.22;;
21554;SDS011;10938;44.794;-0.676;2022-11-15T16:14:59;22.38;;;13.23;;
21554;SDS011;10938;44.794;-0.676;2022-11-15T16:17:30;20.42;;;8.98;;
21554;SDS011;10938;44.794;-0.676;2022-11-15T16:19:58;15.55;;;5.18;;
21554;SDS011;10938;44.794;-0.676;2022-11-15T16:22:24;12.23;;;4.65;;
21554;SDS011;10938;44.794;-0.676;2022-11-15T16:24:50;12.23;;;3.78;;
21554;SDS011;10938;44.794;-0.676;2022-11-15T16:27:16;39.53;;;30.10;;
21554;SDS011;10938;44.794;-0.676;2022-11-15T16:29:44;29.02;;;17.80;;
21554;SDS011;10938;44.794;-0.676;2022-11-15T16:32:11;34.10;;;21.75;;
21554;SDS011;10938;44.794;-0.676;2022-11-15T16:34:38;52.42;;;29.10;;
21554;SDS011;10938;44.794;-0.676;2022-11-15T16:37:03;62.35;;;44.13;;
21554;SDS011;10938;44.794;-0.676;2022-11-15T16:39:29;53.83;;;34.70;;
21554;SDS011;10938;44.794;-0.676;2022-11-15T16:41:56;34.65;;;24.52;;
21554;SDS011;10938;44.794;-0.676;2022-11-15T16:44:24;38.97;;;25.73;;
21554;SDS011;10938;44.794;-0.676;2022-11-15T16:46:50;42.30;;;27.88;;
21554;SDS011;10938;44.794;-0.676;2022-11-15T16:49:20;26.10;;;14.82;;
21554;SDS011;10938;44.794;-0.676;2022-11-15T16:51:46;19.40;;;11.13;;
21554;SDS011;10938;44.794;-0.676;2022-11-15T16:54:13;18.10;;;8.57;;
21554;SDS011;10938;44.794;-0.676;2022-11-15T16:56:39;18.45;;;9.18;;
21554;SDS011;10938;44.794;-0.676;2022-11-15T16:59:06;17.67;;;6.50;;
21554;SDS011;10938;44.794;-0.676;2022-11-15T17:01:36;32.33;;;18.40;;
21554;SDS011;10938;44.794;-0.676;2022-11-15T17:04:14;19.90;;;11.88;;
21554;SDS011;10938;44.794;-0.676;2022-11-15T17:06:42;19.67;;;8.65;;
21554;SDS011;10938;44.794;-0.676;2022-11-15T17:09:10;28.25;;;12.52;;
21554;SDS011;10938;44.794;-0.676;2022-11-15T17:11:41;30.38;;;13.07;;
21554;SDS011;10938;44.794;-0.676;2022-11-15T17:14:07;22.20;;;13.18;;